sensor_id;sensor_type;location;lat;lon;timestamp;temperature;humidity
11229;DHT22;5671;47.936;8.716;2023-03-31T00:01:59;5.80;84.40
11229;DHT22;5671;47.936;8.716;2023-03-31T00:04:27;5.80;83.30
11229;DHT22;5671;47.936;8.716;2023-03-31T00:06:56;5.80;84.80
11229;DHT22;5671;47.936;8.716;2023-03-31T00:09:23;5.80;83.90
11229;DHT22;5671;47.936;8.716;2023-03-31T00:11:51;5.80;83.30
11229;DHT22;5671;47.936;8.716;2023-03-31T00:14:20;5.80;83.00
11229;DHT22;5671;47.936;8.716;2023-03-31T00:16:47;5.80;83.10
11229;DHT22;5671;47.936;8.716;2023-03-31T00:19:14;5.80;83.00
11229;DHT22;5671;47.936;8.716;2023-03-31T00:21:45;5.80;83.50
11229;DHT22;5671;47.936;8.716;2023-03-31T00:24:13;5.80;83.30
11229;DHT22;5671;47.936;8.716;2023-03-31T00:26:40;5.80;82.90
11229;DHT22;5671;47.936;8.716;2023-03-31T00:29:11;5.80;83.10
11229;DHT22;5671;47.936;8.716;2023-03-31T00:31:38;5.80;83.20
11229;DHT22;5671;47.936;8.716;2023-03-31T00:34:05;5.90;83.10
11229;DHT22;5671;47.936;8.716;2023-03-31T00:36:32;5.90;83.00
11229;DHT22;5671;47.936;8.716;2023-03-31T00:39:02;5.90;83.00
11229;DHT22;5671;47.936;8.716;2023-03-31T00:41:30;5.90;82.80
11229;DHT22;5671;47.936;8.716;2023-03-31T00:44:11;5.90;83.20
11229;DHT22;5671;47.936;8.716;2023-03-31T00:46:47;5.90;84.90
11229;DHT22;5671;47.936;8.716;2023-03-31T00:49:21;5.90;84.80
11229;DHT22;5671;47.936;8.716;2023-03-31T00:51:50;5.90;84.30
11229;DHT22;5671;47.936;8.716;2023-03-31T00:54:20;5.90;85.10
11229;DHT22;5671;47.936;8.716;2023-03-31T00:56:48;5.90;85.00
11229;DHT22;5671;47.936;8.716;2023-03-31T00:59:18;6.00;85.00
11229;DHT22;5671;47.936;8.716;2023-03-31T01:01:47;6.00;86.20
11229;DHT22;5671;47.936;8.716;2023-03-31T01:04:15;6.00;85.90
11229;DHT22;5671;47.936;8.716;2023-03-31T01:06:53;6.00;85.00
11229;DHT22;5671;47.936;8.716;2023-03-31T01:09:22;6.00;84.30
11229;DHT22;5671;47.936;8.716;2023-03-31T01:11:50;6.00;83.90
11229;DHT22;5671;47.936;8.716;2023-03-31T01:14:17;6.10;85.00
11229;DHT22;5671;47.936;8.716;2023-03-31T01:16:45;6.10;84.10
11229;DHT22;5671;47.936;8.716;2023-03-31T01:19:17;6.10;84.90
11229;DHT22;5671;47.936;8.716;2023-03-31T01:25:13;6.10;86.70
11229;DHT22;5671;47.936;8.716;2023-03-31T01:28:07;6.10;86.90
11229;DHT22;5671;47.936;8.716;2023-03-31T01:31:03;6.20;86.90
11229;DHT22;5671;47.936;8.716;2023-03-31T01:34:18;6.20;87.30
11229;DHT22;5671;47.936;8.716;2023-03-31T01:37:13;6.20;87.20
11229;DHT22;5671;47.936;8.716;2023-03-31T01:40:06;6.20;86.30
11229;DHT22;5671;47.936;8.716;2023-03-31T01:42:37;6.20;87.30
11229;DHT22;5671;47.936;8.716;2023-03-31T01:45:13;6.30;87.20
11229;DHT22;5671;47.936;8.716;2023-03-31T01:47:45;6.30;86.90
11229;DHT22;5671;47.936;8.716;2023-03-31T01:50:21;6.30;86.90
11229;DHT22;5671;47.936;8.716;2023-03-31T01:52:56;6.40;87.00
11229;DHT22;5671;47.936;8.716;2023-03-31T01:55:29;6.40;86.10
11229;DHT22;5671;47.936;8.716;2023-03-31T01:58:04;6.40;86.10
11229;DHT22;5671;47.936;8.716;2023-03-31T02:00:35;6.40;85.60
11229;DHT22;5671;47.936;8.716;2023-03-31T02:03:06;6.30;85.20
11229;DHT22;5671;47.936;8.716;2023-03-31T02:05:39;6.30;84.90
11229;DHT22;5671;47.936;8.716;2023-03-31T02:08:11;6.30;86.20
11229;DHT22;5671;47.936;8.716;2023-03-31T02:10:43;6.40;86.20
11229;DHT22;5671;47.936;8.716;2023-03-31T02:13:12;6.40;85.90
11229;DHT22;5671;47.936;8.716;2023-03-31T02:15:42;6.30;84.80
11229;DHT22;5671;47.936;8.716;2023-03-31T02:18:13;6.40;85.20
11229;DHT22;5671;47.936;8.716;2023-03-31T02:20:43;6.40;85.40
11229;DHT22;5671;47.936;8.716;2023-03-31T02:23:13;6.40;84.80
11229;DHT22;5671;47.936;8.716;2023-03-31T02:25:46;6.40;84.50
11229;DHT22;5671;47.936;8.716;2023-03-31T02:28:18;6.40;84.70
11229;DHT22;5671;47.936;8.716;2023-03-31T02:30:50;6.40;85.70
11229;DHT22;5671;47.936;8.716;2023-03-31T02:33:18;6.40;86.20
11229;DHT22;5671;47.936;8.716;2023-03-31T02:35:45;6.40;86.30
11229;DHT22;5671;47.936;8.716;2023-03-31T02:38:12;6.40;86.10
11229;DHT22;5671;47.936;8.716;2023-03-31T02:40:41;6.40;86.30
11229;DHT22;5671;47.936;8.716;2023-03-31T02:43:08;6.40;86.40
11229;DHT22;5671;47.936;8.716;2023-03-31T02:45:39;6.40;85.50
11229;DHT22;5671;47.936;8.716;2023-03-31T02:48:09;6.40;86.20
11229;DHT22;5671;47.936;8.716;2023-03-31T02:50:53;6.40;86.80
11229;DHT22;5671;47.936;8.716;2023-03-31T02:53:31;6.40;85.80
11229;DHT22;5671;47.936;8.716;2023-03-31T02:56:15;6.40;86.30
11229;DHT22;5671;47.936;8.716;2023-03-31T02:59:00;6.40;86.80
11229;DHT22;5671;47.936;8.716;2023-03-31T03:01:48;6.30;87.50
11229;DHT22;5671;47.936;8.716;2023-03-31T03:04:35;6.30;87.90
11229;DHT22;5671;47.936;8.716;2023-03-31T03:07:07;6.30;88.00
11229;DHT22;5671;47.936;8.716;2023-03-31T03:09:45;6.30;88.20
11229;DHT22;5671;47.936;8.716;2023-03-31T03:12:20;6.20;86.80
11229;DHT22;5671;47.936;8.716;2023-03-31T03:14:52;6.20;87.60
11229;DHT22;5671;47.936;8.716;2023-03-31T03:17:23;6.20;88.00
11229;DHT22;5671;47.936;8.716;2023-03-31T03:19:54;6.10;87.90
11229;DHT22;5671;47.936;8.716;2023-03-31T03:22:21;6.10;88.40
11229;DHT22;5671;47.936;8.716;2023-03-31T03:24:48;6.00;88.70
11229;DHT22;5671;47.936;8.716;2023-03-31T03:27:17;6.00;89.20
11229;DHT22;5671;47.936;8.716;2023-03-31T03:29:46;6.00;88.90
11229;DHT22;5671;47.936;8.716;2023-03-31T03:32:13;6.00;89.30
11229;DHT22;5671;47.936;8.716;2023-03-31T03:34:40;6.00;88.80
11229;DHT22;5671;47.936;8.716;2023-03-31T03:37:07;6.00;89.00
11229;DHT22;5671;47.936;8.716;2023-03-31T03:39:34;6.00;89.00
11229;DHT22;5671;47.936;8.716;2023-03-31T03:42:02;6.00;88.70
11229;DHT22;5671;47.936;8.716;2023-03-31T03:44:30;6.00;88.50
11229;DHT22;5671;47.936;8.716;2023-03-31T03:46:57;6.00;88.20
11229;DHT22;5671;47.936;8.716;2023-03-31T03:49:24;5.90;88.50
11229;DHT22;5671;47.936;8.716;2023-03-31T03:51:51;5.90;87.90
11229;DHT22;5671;47.936;8.716;2023-03-31T03:54:18;5.90;87.20
11229;DHT22;5671;47.936;8.716;2023-03-31T03:56:44;5.90;87.10
11229;DHT22;5671;47.936;8.716;2023-03-31T03:59:11;5.90;86.60
11229;DHT22;5671;47.936;8.716;2023-03-31T04:01:40;5.90;87.50
11229;DHT22;5671;47.936;8.716;2023-03-31T04:04:06;5.90;87.60
11229;DHT22;5671;47.936;8.716;2023-03-31T04:06:33;5.80;88.00
11229;DHT22;5671;47.936;8.716;2023-03-31T04:09:00;5.80;87.50
11229;DHT22;5671;47.936;8.716;2023-03-31T04:11:28;5.90;87.10
11229;DHT22;5671;47.936;8.716;2023-03-31T04:13:55;5.80;87.70
11229;DHT22;5671;47.936;8.716;2023-03-31T04:16:22;5.90;89.00
11229;DHT22;5671;47.936;8.716;2023-03-31T04:18:51;5.90;88.40
11229;DHT22;5671;47.936;8.716;2023-03-31T04:21:21;6.00;89.10
11229;DHT22;5671;47.936;8.716;2023-03-31T04:23:49;6.10;89.80
11229;DHT22;5671;47.936;8.716;2023-03-31T04:26:23;6.00;89.60
11229;DHT22;5671;47.936;8.716;2023-03-31T04:28:56;6.10;88.60
11229;DHT22;5671;47.936;8.716;2023-03-31T04:31:25;6.10;87.60
11229;DHT22;5671;47.936;8.716;2023-03-31T04:33:56;6.10;87.20
11229;DHT22;5671;47.936;8.716;2023-03-31T04:36:26;6.10;87.00
11229;DHT22;5671;47.936;8.716;2023-03-31T04:38:56;6.10;87.00
11229;DHT22;5671;47.936;8.716;2023-03-31T04:41:24;6.10;86.80
11229;DHT22;5671;47.936;8.716;2023-03-31T04:43:52;6.10;86.70
11229;DHT22;5671;47.936;8.716;2023-03-31T04:46:19;6.10;86.30
11229;DHT22;5671;47.936;8.716;2023-03-31T04:48:46;6.20;86.30
11229;DHT22;5671;47.936;8.716;2023-03-31T04:51:14;6.10;87.40
11229;DHT22;5671;47.936;8.716;2023-03-31T04:53:41;6.10;87.10
11229;DHT22;5671;47.936;8.716;2023-03-31T04:56:08;6.10;86.40
11229;DHT22;5671;47.936;8.716;2023-03-31T04:58:35;6.20;86.70
11229;DHT22;5671;47.936;8.716;2023-03-31T05:01:02;6.20;86.60
11229;DHT22;5671;47.936;8.716;2023-03-31T05:03:30;6.20;87.20
11229;DHT22;5671;47.936;8.716;2023-03-31T05:05:57;6.20;88.20
11229;DHT22;5671;47.936;8.716;2023-03-31T05:08:26;6.20;88.70
11229;DHT22;5671;47.936;8.716;2023-03-31T05:10:53;6.20;88.50
11229;DHT22;5671;47.936;8.716;2023-03-31T05:13:20;6.20;88.80
11229;DHT22;5671;47.936;8.716;2023-03-31T05:15:46;6.20;89.00
11229;DHT22;5671;47.936;8.716;2023-03-31T05:18:15;6.20;89.00
11229;DHT22;5671;47.936;8.716;2023-03-31T05:20:42;6.30;88.60
11229;DHT22;5671;47.936;8.716;2023-03-31T05:23:08;6.30;89.20
11229;DHT22;5671;47.936;8.716;2023-03-31T05:25:37;6.30;89.20
11229;DHT22;5671;47.936;8.716;2023-03-31T05:28:04;6.30;88.90
11229;DHT22;5671;47.936;8.716;2023-03-31T05:30:32;6.30;88.40
11229;DHT22;5671;47.936;8.716;2023-03-31T05:32:59;6.40;88.00
11229;DHT22;5671;47.936;8.716;2023-03-31T05:35:25;6.40;88.00
11229;DHT22;5671;47.936;8.716;2023-03-31T05:37:54;6.40;88.20
11229;DHT22;5671;47.936;8.716;2023-03-31T05:40:21;6.50;89.70
11229;DHT22;5671;47.936;8.716;2023-03-31T05:42:49;6.50;89.50
11229;DHT22;5671;47.936;8.716;2023-03-31T05:45:16;6.50;88.80
11229;DHT22;5671;47.936;8.716;2023-03-31T05:47:43;6.60;89.20
11229;DHT22;5671;47.936;8.716;2023-03-31T05:50:10;6.60;89.40
11229;DHT22;5671;47.936;8.716;2023-03-31T05:52:37;6.70;89.30
11229;DHT22;5671;47.936;8.716;2023-03-31T05:55:04;6.70;88.70
11229;DHT22;5671;47.936;8.716;2023-03-31T05:57:31;6.70;89.60
11229;DHT22;5671;47.936;8.716;2023-03-31T05:59:59;6.80;90.10
11229;DHT22;5671;47.936;8.716;2023-03-31T06:02:26;6.80;89.70
11229;DHT22;5671;47.936;8.716;2023-03-31T06:04:53;6.90;89.50
11229;DHT22;5671;47.936;8.716;2023-03-31T06:07:22;6.90;89.70
11229;DHT22;5671;47.936;8.716;2023-03-31T06:09:49;7.00;89.60
11229;DHT22;5671;47.936;8.716;2023-03-31T06:12:16;7.00;89.50
11229;DHT22;5671;47.936;8.716;2023-03-31T06:14:43;7.10;89.40
11229;DHT22;5671;47.936;8.716;2023-03-31T06:17:14;7.10;89.00
11229;DHT22;5671;47.936;8.716;2023-03-31T06:19:41;7.20;89.40
11229;DHT22;5671;47.936;8.716;2023-03-31T06:22:08;7.20;89.60
11229;DHT22;5671;47.936;8.716;2023-03-31T06:24:35;7.30;89.00
11229;DHT22;5671;47.936;8.716;2023-03-31T06:27:02;7.30;88.80
11229;DHT22;5671;47.936;8.716;2023-03-31T06:29:28;7.40;89.30
11229;DHT22;5671;47.936;8.716;2023-03-31T06:31:55;7.40;88.80
11229;DHT22;5671;47.936;8.716;2023-03-31T06:34:24;7.50;88.60
11229;DHT22;5671;47.936;8.716;2023-03-31T06:36:51;7.50;88.40
11229;DHT22;5671;47.936;8.716;2023-03-31T06:39:19;7.60;88.90
11229;DHT22;5671;47.936;8.716;2023-03-31T06:41:45;7.70;88.90
11229;DHT22;5671;47.936;8.716;2023-03-31T06:44:12;7.80;87.30
11229;DHT22;5671;47.936;8.716;2023-03-31T06:46:41;8.00;85.20
11229;DHT22;5671;47.936;8.716;2023-03-31T06:49:08;8.10;85.70
11229;DHT22;5671;47.936;8.716;2023-03-31T06:51:36;8.10;86.10
11229;DHT22;5671;47.936;8.716;2023-03-31T06:54:03;8.20;85.90
11229;DHT22;5671;47.936;8.716;2023-03-31T06:56:30;8.20;86.50
11229;DHT22;5671;47.936;8.716;2023-03-31T06:58:57;8.20;86.80
11229;DHT22;5671;47.936;8.716;2023-03-31T07:01:24;8.20;88.50
11229;DHT22;5671;47.936;8.716;2023-03-31T07:03:51;8.10;90.10
11229;DHT22;5671;47.936;8.716;2023-03-31T07:06:21;8.00;88.40
11229;DHT22;5671;47.936;8.716;2023-03-31T07:08:49;7.90;87.10
11229;DHT22;5671;47.936;8.716;2023-03-31T07:11:16;7.70;85.00
11229;DHT22;5671;47.936;8.716;2023-03-31T07:13:43;7.60;84.90
11229;DHT22;5671;47.936;8.716;2023-03-31T07:16:10;7.40;86.10
11229;DHT22;5671;47.936;8.716;2023-03-31T07:18:38;7.40;86.50
11229;DHT22;5671;47.936;8.716;2023-03-31T07:21:07;7.40;84.80
11229;DHT22;5671;47.936;8.716;2023-03-31T07:23:34;7.40;85.10
11229;DHT22;5671;47.936;8.716;2023-03-31T07:26:03;7.30;82.60
11229;DHT22;5671;47.936;8.716;2023-03-31T07:28:31;7.30;84.20
11229;DHT22;5671;47.936;8.716;2023-03-31T07:30:58;7.30;84.10
11229;DHT22;5671;47.936;8.716;2023-03-31T07:33:25;7.30;83.10
11229;DHT22;5671;47.936;8.716;2023-03-31T07:35:52;7.30;82.40
11229;DHT22;5671;47.936;8.716;2023-03-31T07:38:18;7.20;83.50
11229;DHT22;5671;47.936;8.716;2023-03-31T07:40:45;7.20;83.50
11229;DHT22;5671;47.936;8.716;2023-03-31T07:43:14;7.20;83.20
11229;DHT22;5671;47.936;8.716;2023-03-31T07:45:40;7.30;83.90
11229;DHT22;5671;47.936;8.716;2023-03-31T07:48:07;7.40;84.50
11229;DHT22;5671;47.936;8.716;2023-03-31T07:50:34;7.60;83.30
11229;DHT22;5671;47.936;8.716;2023-03-31T07:53:01;7.80;81.70
11229;DHT22;5671;47.936;8.716;2023-03-31T07:55:28;8.00;81.70
11229;DHT22;5671;47.936;8.716;2023-03-31T07:57:55;8.30;81.50
11229;DHT22;5671;47.936;8.716;2023-03-31T08:00:23;8.50;80.50
11229;DHT22;5671;47.936;8.716;2023-03-31T08:02:50;8.70;81.40
11229;DHT22;5671;47.936;8.716;2023-03-31T08:05:19;8.90;80.00
11229;DHT22;5671;47.936;8.716;2023-03-31T08:07:48;9.00;80.30
11229;DHT22;5671;47.936;8.716;2023-03-31T08:10:17;9.10;78.40
11229;DHT22;5671;47.936;8.716;2023-03-31T08:12:44;9.10;77.40
11229;DHT22;5671;47.936;8.716;2023-03-31T08:15:11;9.20;77.20
11229;DHT22;5671;47.936;8.716;2023-03-31T08:17:40;9.30;76.40
11229;DHT22;5671;47.936;8.716;2023-03-31T08:20:08;9.40;76.90
11229;DHT22;5671;47.936;8.716;2023-03-31T08:22:35;9.50;77.20
11229;DHT22;5671;47.936;8.716;2023-03-31T08:25:02;9.60;77.70
11229;DHT22;5671;47.936;8.716;2023-03-31T08:27:32;9.80;78.00
11229;DHT22;5671;47.936;8.716;2023-03-31T08:29:59;10.00;76.10
11229;DHT22;5671;47.936;8.716;2023-03-31T08:32:29;10.10;73.40
11229;DHT22;5671;47.936;8.716;2023-03-31T08:34:57;10.30;72.50
11229;DHT22;5671;47.936;8.716;2023-03-31T08:37:25;10.50;70.30
11229;DHT22;5671;47.936;8.716;2023-03-31T08:39:52;10.60;68.90
11229;DHT22;5671;47.936;8.716;2023-03-31T08:42:21;10.70;68.60
11229;DHT22;5671;47.936;8.716;2023-03-31T08:44:56;10.80;68.80
11229;DHT22;5671;47.936;8.716;2023-03-31T08:47:26;10.90;67.80
11229;DHT22;5671;47.936;8.716;2023-03-31T08:49:59;11.10;68.50
11229;DHT22;5671;47.936;8.716;2023-03-31T08:52:31;11.20;65.40
11229;DHT22;5671;47.936;8.716;2023-03-31T08:55:03;11.30;65.60
11229;DHT22;5671;47.936;8.716;2023-03-31T08:57:34;11.40;64.00
11229;DHT22;5671;47.936;8.716;2023-03-31T09:00:12;11.50;62.80
11229;DHT22;5671;47.936;8.716;2023-03-31T09:02:43;11.70;62.40
11229;DHT22;5671;47.936;8.716;2023-03-31T09:05:34;11.80;61.50
11229;DHT22;5671;47.936;8.716;2023-03-31T09:08:10;11.90;62.10
11229;DHT22;5671;47.936;8.716;2023-03-31T09:10:42;11.90;59.40
11229;DHT22;5671;47.936;8.716;2023-03-31T09:13:36;12.00;59.70
11229;DHT22;5671;47.936;8.716;2023-03-31T09:16:11;12.00;58.90
11229;DHT22;5671;47.936;8.716;2023-03-31T09:18:40;12.20;60.10
11229;DHT22;5671;47.936;8.716;2023-03-31T09:21:17;12.30;59.00
11229;DHT22;5671;47.936;8.716;2023-03-31T09:23:49;12.40;57.30
11229;DHT22;5671;47.936;8.716;2023-03-31T09:26:24;12.20;57.70
11229;DHT22;5671;47.936;8.716;2023-03-31T09:28:54;12.10;56.60
11229;DHT22;5671;47.936;8.716;2023-03-31T09:31:23;12.10;59.20
11229;DHT22;5671;47.936;8.716;2023-03-31T09:33:53;12.00;55.50
11229;DHT22;5671;47.936;8.716;2023-03-31T09:36:22;12.00;56.70
11229;DHT22;5671;47.936;8.716;2023-03-31T09:38:49;12.20;56.30
11229;DHT22;5671;47.936;8.716;2023-03-31T09:41:17;12.30;56.10
11229;DHT22;5671;47.936;8.716;2023-03-31T09:43:45;12.50;55.70
11229;DHT22;5671;47.936;8.716;2023-03-31T09:46:16;12.50;55.20
11229;DHT22;5671;47.936;8.716;2023-03-31T09:48:51;12.30;54.50
11229;DHT22;5671;47.936;8.716;2023-03-31T09:51:25;12.10;53.90
11229;DHT22;5671;47.936;8.716;2023-03-31T09:53:57;11.80;54.90
11229;DHT22;5671;47.936;8.716;2023-03-31T09:56:44;11.70;56.60
11229;DHT22;5671;47.936;8.716;2023-03-31T09:59:15;11.60;55.00
11229;DHT22;5671;47.936;8.716;2023-03-31T10:01:44;11.50;56.70
11229;DHT22;5671;47.936;8.716;2023-03-31T10:04:18;11.40;55.20
11229;DHT22;5671;47.936;8.716;2023-03-31T10:06:47;11.70;56.10
11229;DHT22;5671;47.936;8.716;2023-03-31T10:09:15;12.00;55.40
11229;DHT22;5671;47.936;8.716;2023-03-31T10:11:52;12.40;53.30
11229;DHT22;5671;47.936;8.716;2023-03-31T10:14:24;12.70;53.30
11229;DHT22;5671;47.936;8.716;2023-03-31T10:16:54;12.90;52.10
11229;DHT22;5671;47.936;8.716;2023-03-31T10:19:22;13.10;53.10
11229;DHT22;5671;47.936;8.716;2023-03-31T10:21:57;13.20;51.70
11229;DHT22;5671;47.936;8.716;2023-03-31T10:24:24;13.50;49.80
11229;DHT22;5671;47.936;8.716;2023-03-31T10:26:55;13.80;48.90
11229;DHT22;5671;47.936;8.716;2023-03-31T10:29:28;14.10;49.20
11229;DHT22;5671;47.936;8.716;2023-03-31T10:31:55;14.30;48.60
11229;DHT22;5671;47.936;8.716;2023-03-31T10:34:28;14.30;48.60
11229;DHT22;5671;47.936;8.716;2023-03-31T10:36:57;14.20;47.80
11229;DHT22;5671;47.936;8.716;2023-03-31T10:39:29;14.00;46.70
11229;DHT22;5671;47.936;8.716;2023-03-31T10:41:57;13.90;46.10
11229;DHT22;5671;47.936;8.716;2023-03-31T10:44:31;14.10;46.60
11229;DHT22;5671;47.936;8.716;2023-03-31T10:47:04;14.10;47.00
11229;DHT22;5671;47.936;8.716;2023-03-31T10:49:36;14.20;46.40
11229;DHT22;5671;47.936;8.716;2023-03-31T10:52:15;14.20;47.20
11229;DHT22;5671;47.936;8.716;2023-03-31T10:54:48;14.60;46.00
11229;DHT22;5671;47.936;8.716;2023-03-31T10:57:16;14.70;46.60
11229;DHT22;5671;47.936;8.716;2023-03-31T11:00:05;14.80;44.40
11229;DHT22;5671;47.936;8.716;2023-03-31T11:03:14;15.30;45.00
11229;DHT22;5671;47.936;8.716;2023-03-31T11:05:48;15.10;44.60
11229;DHT22;5671;47.936;8.716;2023-03-31T11:08:29;15.40;44.60
11229;DHT22;5671;47.936;8.716;2023-03-31T11:11:20;15.40;43.50
11229;DHT22;5671;47.936;8.716;2023-03-31T11:13:57;15.10;44.30
11229;DHT22;5671;47.936;8.716;2023-03-31T11:16:32;14.90;43.70
11229;DHT22;5671;47.936;8.716;2023-03-31T11:19:10;14.50;45.00
11229;DHT22;5671;47.936;8.716;2023-03-31T11:21:52;14.40;45.20
11229;DHT22;5671;47.936;8.716;2023-03-31T11:24:33;14.50;46.50
11229;DHT22;5671;47.936;8.716;2023-03-31T11:27:11;14.90;47.30
11229;DHT22;5671;47.936;8.716;2023-03-31T11:29:49;15.10;46.30
11229;DHT22;5671;47.936;8.716;2023-03-31T11:32:41;14.80;46.30
11229;DHT22;5671;47.936;8.716;2023-03-31T11:35:19;14.50;47.30
11229;DHT22;5671;47.936;8.716;2023-03-31T11:37:56;14.00;48.40
11229;DHT22;5671;47.936;8.716;2023-03-31T11:40:38;13.50;55.40
11229;DHT22;5671;47.936;8.716;2023-03-31T11:43:11;13.00;52.40
11229;DHT22;5671;47.936;8.716;2023-03-31T11:45:43;12.60;53.30
11229;DHT22;5671;47.936;8.716;2023-03-31T11:48:17;12.20;54.60
11229;DHT22;5671;47.936;8.716;2023-03-31T11:50:48;12.00;54.90
11229;DHT22;5671;47.936;8.716;2023-03-31T11:53:17;12.30;57.50
11229;DHT22;5671;47.936;8.716;2023-03-31T11:55:49;13.00;56.90
11229;DHT22;5671;47.936;8.716;2023-03-31T11:58:20;13.50;53.10
11229;DHT22;5671;47.936;8.716;2023-03-31T12:00:51;13.80;52.20
11229;DHT22;5671;47.936;8.716;2023-03-31T12:03:21;13.70;53.90
11229;DHT22;5671;47.936;8.716;2023-03-31T12:05:52;13.70;51.20
11229;DHT22;5671;47.936;8.716;2023-03-31T12:08:25;13.40;52.00
11229;DHT22;5671;47.936;8.716;2023-03-31T12:11:01;13.20;53.10
11229;DHT22;5671;47.936;8.716;2023-03-31T12:13:38;12.90;55.20
11229;DHT22;5671;47.936;8.716;2023-03-31T12:16:10;12.50;54.70
11229;DHT22;5671;47.936;8.716;2023-03-31T12:18:42;12.20;56.00
11229;DHT22;5671;47.936;8.716;2023-03-31T12:21:11;11.80;54.90
11229;DHT22;5671;47.936;8.716;2023-03-31T12:23:40;11.60;58.60
11229;DHT22;5671;47.936;8.716;2023-03-31T12:26:17;11.20;55.40
11229;DHT22;5671;47.936;8.716;2023-03-31T12:28:55;10.90;54.90
11229;DHT22;5671;47.936;8.716;2023-03-31T12:31:24;10.70;56.90
11229;DHT22;5671;47.936;8.716;2023-03-31T12:33:55;10.10;65.70
11229;DHT22;5671;47.936;8.716;2023-03-31T12:36:32;9.40;63.90
11229;DHT22;5671;47.936;8.716;2023-03-31T12:39:13;9.30;63.80
11229;DHT22;5671;47.936;8.716;2023-03-31T12:42:03;9.30;60.00
11229;DHT22;5671;47.936;8.716;2023-03-31T12:44:47;9.30;59.20
11229;DHT22;5671;47.936;8.716;2023-03-31T12:47:36;9.40;56.10
11229;DHT22;5671;47.936;8.716;2023-03-31T12:50:21;9.30;54.90
11229;DHT22;5671;47.936;8.716;2023-03-31T12:52:58;9.20;54.80
11229;DHT22;5671;47.936;8.716;2023-03-31T12:55:32;9.40;57.00
11229;DHT22;5671;47.936;8.716;2023-03-31T12:58:37;9.70;56.20
11229;DHT22;5671;47.936;8.716;2023-03-31T13:01:12;10.40;56.40
11229;DHT22;5671;47.936;8.716;2023-03-31T13:03:52;11.30;53.50
11229;DHT22;5671;47.936;8.716;2023-03-31T13:09:45;12.70;49.00
11229;DHT22;5671;47.936;8.716;2023-03-31T13:12:15;12.80;49.00
11229;DHT22;5671;47.936;8.716;2023-03-31T13:14:46;13.20;47.20
11229;DHT22;5671;47.936;8.716;2023-03-31T13:17:22;13.20;46.40
11229;DHT22;5671;47.936;8.716;2023-03-31T13:19:49;13.50;46.20
11229;DHT22;5671;47.936;8.716;2023-03-31T13:22:34;13.70;46.20
11229;DHT22;5671;47.936;8.716;2023-03-31T13:31:09;13.90;45.20
11229;DHT22;5671;47.936;8.716;2023-03-31T13:33:46;13.20;46.90
11229;DHT22;5671;47.936;8.716;2023-03-31T13:36:35;12.90;46.40
11229;DHT22;5671;47.936;8.716;2023-03-31T13:39:23;12.70;47.40
11229;DHT22;5671;47.936;8.716;2023-03-31T13:41:59;12.70;47.90
11229;DHT22;5671;47.936;8.716;2023-03-31T13:44:55;12.50;49.00
11229;DHT22;5671;47.936;8.716;2023-03-31T13:50:59;12.40;49.40
11229;DHT22;5671;47.936;8.716;2023-03-31T13:53:44;12.50;49.10
11229;DHT22;5671;47.936;8.716;2023-03-31T13:56:36;12.30;50.20
11229;DHT22;5671;47.936;8.716;2023-03-31T13:59:38;12.30;51.80
11229;DHT22;5671;47.936;8.716;2023-03-31T14:02:39;12.40;52.40
11229;DHT22;5671;47.936;8.716;2023-03-31T14:05:30;12.50;50.60
11229;DHT22;5671;47.936;8.716;2023-03-31T14:08:02;12.40;52.10
11229;DHT22;5671;47.936;8.716;2023-03-31T14:10:34;12.40;52.30
11229;DHT22;5671;47.936;8.716;2023-03-31T14:13:09;12.10;51.60
11229;DHT22;5671;47.936;8.716;2023-03-31T14:15:42;12.10;52.50
11229;DHT22;5671;47.936;8.716;2023-03-31T14:18:12;12.00;51.90
11229;DHT22;5671;47.936;8.716;2023-03-31T14:20:51;11.70;53.10
11229;DHT22;5671;47.936;8.716;2023-03-31T14:23:31;11.60;53.10
11229;DHT22;5671;47.936;8.716;2023-03-31T14:26:05;11.40;54.80
11229;DHT22;5671;47.936;8.716;2023-03-31T14:29:02;10.60;66.80
11229;DHT22;5671;47.936;8.716;2023-03-31T14:31:38;10.00;72.30
11229;DHT22;5671;47.936;8.716;2023-03-31T14:34:23;9.60;69.80
11229;DHT22;5671;47.936;8.716;2023-03-31T14:36:55;9.60;71.30
11229;DHT22;5671;47.936;8.716;2023-03-31T14:39:28;9.50;70.70
11229;DHT22;5671;47.936;8.716;2023-03-31T14:41:59;9.10;70.20
11229;DHT22;5671;47.936;8.716;2023-03-31T14:44:27;9.00;71.40
11229;DHT22;5671;47.936;8.716;2023-03-31T14:46:56;8.80;72.50
11229;DHT22;5671;47.936;8.716;2023-03-31T14:49:25;8.60;69.60
11229;DHT22;5671;47.936;8.716;2023-03-31T14:51:54;8.40;71.30
11229;DHT22;5671;47.936;8.716;2023-03-31T14:54:21;8.40;72.40
11229;DHT22;5671;47.936;8.716;2023-03-31T14:56:51;8.40;72.40
11229;DHT22;5671;47.936;8.716;2023-03-31T14:59:21;8.30;72.50
11229;DHT22;5671;47.936;8.716;2023-03-31T15:01:50;8.30;73.20
11229;DHT22;5671;47.936;8.716;2023-03-31T15:04:21;8.30;73.20
11229;DHT22;5671;47.936;8.716;2023-03-31T15:06:49;8.20;72.50
11229;DHT22;5671;47.936;8.716;2023-03-31T15:09:21;8.10;73.40
11229;DHT22;5671;47.936;8.716;2023-03-31T15:11:55;8.00;72.60
11229;DHT22;5671;47.936;8.716;2023-03-31T15:14:28;7.90;74.20
11229;DHT22;5671;47.936;8.716;2023-03-31T15:16:55;7.90;73.90
11229;DHT22;5671;47.936;8.716;2023-03-31T15:19:23;7.80;73.90
11229;DHT22;5671;47.936;8.716;2023-03-31T15:21:55;7.80;74.20
11229;DHT22;5671;47.936;8.716;2023-03-31T15:24:26;7.60;76.30
11229;DHT22;5671;47.936;8.716;2023-03-31T15:26:57;7.70;76.70
11229;DHT22;5671;47.936;8.716;2023-03-31T15:29:30;7.60;75.90
11229;DHT22;5671;47.936;8.716;2023-03-31T15:32:02;7.50;75.40
11229;DHT22;5671;47.936;8.716;2023-03-31T15:34:31;7.40;76.70
11229;DHT22;5671;47.936;8.716;2023-03-31T15:37:00;7.50;75.00
11229;DHT22;5671;47.936;8.716;2023-03-31T15:39:30;7.30;75.20
11229;DHT22;5671;47.936;8.716;2023-03-31T15:42:00;7.40;74.60
11229;DHT22;5671;47.936;8.716;2023-03-31T15:44:34;7.60;74.80
11229;DHT22;5671;47.936;8.716;2023-03-31T15:47:07;7.90;73.90
11229;DHT22;5671;47.936;8.716;2023-03-31T15:49:34;8.30;72.10
11229;DHT22;5671;47.936;8.716;2023-03-31T15:52:01;8.50;71.40
11229;DHT22;5671;47.936;8.716;2023-03-31T15:54:34;8.60;69.50
11229;DHT22;5671;47.936;8.716;2023-03-31T15:57:05;9.00;66.30
11229;DHT22;5671;47.936;8.716;2023-03-31T15:59:43;9.30;65.90
11229;DHT22;5671;47.936;8.716;2023-03-31T16:02:14;9.10;67.90
11229;DHT22;5671;47.936;8.716;2023-03-31T16:04:42;8.80;67.10
11229;DHT22;5671;47.936;8.716;2023-03-31T16:07:16;8.60;67.20
11229;DHT22;5671;47.936;8.716;2023-03-31T16:09:49;8.50;69.10
11229;DHT22;5671;47.936;8.716;2023-03-31T16:12:22;8.40;67.70
11229;DHT22;5671;47.936;8.716;2023-03-31T16:14:52;8.30;68.60
11229;DHT22;5671;47.936;8.716;2023-03-31T16:17:32;8.50;69.50
11229;DHT22;5671;47.936;8.716;2023-03-31T16:20:04;9.00;66.80
11229;DHT22;5671;47.936;8.716;2023-03-31T16:22:36;9.70;66.20
11229;DHT22;5671;47.936;8.716;2023-03-31T16:25:12;9.70;64.30
11229;DHT22;5671;47.936;8.716;2023-03-31T16:27:45;11.10;61.20
11229;DHT22;5671;47.936;8.716;2023-03-31T16:30:15;11.80;57.20
11229;DHT22;5671;47.936;8.716;2023-03-31T16:33:02;10.70;60.10
11229;DHT22;5671;47.936;8.716;2023-03-31T16:35:32;9.80;62.30
11229;DHT22;5671;47.936;8.716;2023-03-31T16:37:59;9.20;63.70
11229;DHT22;5671;47.936;8.716;2023-03-31T16:40:28;8.80;65.20
11229;DHT22;5671;47.936;8.716;2023-03-31T16:43:12;8.60;65.90
11229;DHT22;5671;47.936;8.716;2023-03-31T16:45:39;8.40;66.60